Time;durP1;ratioP1;P1;durP2;ratioP2;P2;SDS_P1;SDS_P2;PMS_P1;PMS_P2;Temp;Humidity;BMP_temperature;BMP_pressure;BME280_temperature;BME280_humidity;BME280_pressure;Samples;Min_cycle;Max_cycle;Signal;HPM_P1;HPM_P2
2024/01/28 00:00:50;;;;;;;43.00;25.20;;;;;;;;;;5052679;28;20041;-63
2024/01/28 00:03:37;;;;;;;37.28;24.35;;;;;;;;;;5050815;28;20061;-65
2024/01/28 00:06:06;;;;;;;43.33;25.13;;;;;;;;;;5054499;28;20029;-64
2024/01/28 00:08:37;;;;;;;46.67;25.67;;;;;;;;;;5047326;28;20481;-63
2024/01/28 00:11:03;;;;;;;39.15;24.85;;;;;;;;;;5041953;28;20048;-63
2024/01/28 00:13:34;;;;;;;40.35;25.95;;;;;;;;;;5051752;28;20079;-61
2024/01/28 00:16:01;;;;;;;40.58;25.63;;;;;;;;;;5046119;28;20037;-66
2024/01/28 00:18:27;;;;;;;39.47;25.27;;;;;;;;;;5049603;28;20224;-67
2024/01/28 00:20:53;;;;;;;43.20;25.83;;;;;;;;;;5065998;28;20112;-64
2024/01/28 00:23:20;;;;;;;43.97;27.13;;;;;;;;;;5051167;28;20053;-63
2024/01/28 00:25:47;;;;;;;43.13;25.95;;;;;;;;;;5050748;28;20041;-63
2024/01/28 00:28:13;;;;;;;39.53;25.77;;;;;;;;;;5046097;28;20041;-62
2024/01/28 00:30:41;;;;;;;45.47;27.42;;;;;;;;;;5049106;28;20056;-63
2024/01/28 00:33:09;;;;;;;44.58;25.90;;;;;;;;;;5047290;28;20496;-63
2024/01/28 00:35:34;;;;;;;44.70;25.48;;;;;;;;;;5046372;28;20056;-63
2024/01/28 00:38:02;;;;;;;37.92;24.98;;;;;;;;;;5050764;28;20053;-68
2024/01/28 00:40:29;;;;;;;43.38;24.83;;;;;;;;;;5048477;28;20079;-63
2024/01/28 00:42:56;;;;;;;42.08;25.33;;;;;;;;;;5048220;28;20053;-62
2024/01/28 00:45:22;;;;;;;41.70;26.45;;;;;;;;;;5047467;28;20143;-64
2024/01/28 00:47:49;;;;;;;41.00;25.20;;;;;;;;;;5051216;28;20111;-64
2024/01/28 00:50:15;;;;;;;43.50;26.05;;;;;;;;;;5044516;28;20056;-62
2024/01/28 00:52:41;;;;;;;49.97;25.67;;;;;;;;;;5050266;28;20083;-62
2024/01/28 00:55:09;;;;;;;40.70;24.90;;;;;;;;;;5047977;28;20393;-60
2024/01/28 00:57:35;;;;;;;43.58;25.73;;;;;;;;;;5046521;28;20452;-62
2024/01/28 01:00:02;;;;;;;40.78;24.73;;;;;;;;;;5043466;28;20490;-65
2024/01/28 01:02:28;;;;;;;39.35;24.77;;;;;;;;;;5045624;28;20053;-61
2024/01/28 01:04:54;;;;;;;37.72;24.73;;;;;;;;;;5042560;28;20056;-62
2024/01/28 01:07:21;;;;;;;37.72;23.25;;;;;;;;;;5049230;28;20056;-63
2024/01/28 01:09:47;;;;;;;40.17;24.27;;;;;;;;;;5046981;28;20071;-63
2024/01/28 01:12:15;;;;;;;39.38;24.52;;;;;;;;;;5040097;28;20145;-65
2024/01/28 01:14:41;;;;;;;36.60;23.48;;;;;;;;;;5038708;28;20037;-63
2024/01/28 01:17:11;;;;;;;34.28;21.77;;;;;;;;;;5049429;28;20037;-63
2024/01/28 01:19:38;;;;;;;37.30;22.13;;;;;;;;;;5050244;28;20488;-64
2024/01/28 01:22:04;;;;;;;33.13;20.50;;;;;;;;;;5048883;28;20045;-62
2024/01/28 01:24:31;;;;;;;31.70;21.10;;;;;;;;;;5043647;28;20094;-63
2024/01/28 01:26:57;;;;;;;35.17;21.55;;;;;;;;;;5051636;28;20410;-64
2024/01/28 01:29:24;;;;;;;33.63;20.85;;;;;;;;;;5048834;28;20095;-63
2024/01/28 01:31:51;;;;;;;38.92;21.63;;;;;;;;;;5044240;28;20075;-61
2024/01/28 01:34:17;;;;;;;36.08;20.55;;;;;;;;;;5047834;28;20041;-63
2024/01/28 01:36:44;;;;;;;30.00;18.95;;;;;;;;;;5049916;28;20045;-61
2024/01/28 01:39:16;;;;;;;30.77;18.60;;;;;;;;;;5044419;28;20168;-62
2024/01/28 01:41:45;;;;;;;30.23;19.23;;;;;;;;;;5047155;28;20308;-60
2024/01/28 01:44:12;;;;;;;36.97;19.92;;;;;;;;;;5043761;28;20049;-61
2024/01/28 01:46:42;;;;;;;35.97;19.52;;;;;;;;;;5046421;28;20056;-63
2024/01/28 01:49:08;;;;;;;27.58;18.33;;;;;;;;;;5041339;28;20481;-62
2024/01/28 01:51:36;;;;;;;26.40;17.98;;;;;;;;;;5044558;28;20060;-62
2024/01/28 01:54:03;;;;;;;29.08;19.08;;;;;;;;;;5044920;28;20053;-61
2024/01/28 01:56:31;;;;;;;32.45;17.90;;;;;;;;;;5046674;28;20460;-62
2024/01/28 01:58:57;;;;;;;25.88;18.02;;;;;;;;;;5047020;28;20041;-62
2024/01/28 02:01:26;;;;;;;31.90;18.20;;;;;;;;;;5048258;28;20045;-61
2024/01/28 02:03:55;;;;;;;28.25;17.85;;;;;;;;;;5049133;28;20512;-61
2024/01/28 02:06:21;;;;;;;28.15;17.05;;;;;;;;;;5051207;28;20056;-62
2024/01/28 02:08:47;;;;;;;26.05;17.83;;;;;;;;;;5042619;28;20514;-62
2024/01/28 02:11:14;;;;;;;26.75;17.52;;;;;;;;;;5045534;28;20485;-61
2024/01/28 02:13:40;;;;;;;29.42;17.42;;;;;;;;;;5043404;28;20076;-62
2024/01/28 02:16:08;;;;;;;25.83;17.38;;;;;;;;;;5046912;28;20442;-62
2024/01/28 02:18:34;;;;;;;27.00;17.60;;;;;;;;;;5043499;28;20049;-62
2024/01/28 02:21:00;;;;;;;26.65;17.67;;;;;;;;;;5046493;28;20049;-61
2024/01/28 02:23:26;;;;;;;27.33;16.95;;;;;;;;;;5065588;28;20063;-61
2024/01/28 02:25:52;;;;;;;28.02;17.25;;;;;;;;;;5049139;28;20061;-62
2024/01/28 02:28:18;;;;;;;25.67;16.38;;;;;;;;;;5050052;28;20254;-63
2024/01/28 02:30:44;;;;;;;24.02;16.08;;;;;;;;;;5041248;28;20067;-61
2024/01/28 02:33:10;;;;;;;24.23;15.75;;;;;;;;;;5051897;28;20113;-63
2024/01/28 02:35:38;;;;;;;23.60;15.52;;;;;;;;;;5047872;28;20185;-62
2024/01/28 02:38:04;;;;;;;27.38;15.40;;;;;;;;;;5047647;28;20536;-60
2024/01/28 02:40:31;;;;;;;25.05;14.93;;;;;;;;;;5047852;28;20063;-62
2024/01/28 02:43:00;;;;;;;24.42;15.10;;;;;;;;;;5049687;28;20146;-62
2024/01/28 02:45:27;;;;;;;23.75;15.20;;;;;;;;;;5047522;28;20126;-62
2024/01/28 02:47:52;;;;;;;22.10;14.80;;;;;;;;;;5045354;28;20068;-62
2024/01/28 02:50:20;;;;;;;23.10;15.23;;;;;;;;;;5045371;28;20128;-61
2024/01/28 02:52:46;;;;;;;19.98;13.68;;;;;;;;;;5038898;28;20049;-63
2024/01/28 02:55:14;;;;;;;19.73;13.43;;;;;;;;;;5045739;28;20124;-62
2024/01/28 02:57:39;;;;;;;22.35;13.55;;;;;;;;;;5046710;28;20344;-61
2024/01/28 03:00:06;;;;;;;21.60;14.95;;;;;;;;;;5043213;28;20623;-61
2024/01/28 03:02:32;;;;;;;22.65;13.73;;;;;;;;;;5047000;28;20041;-63
2024/01/28 03:04:58;;;;;;;20.77;13.50;;;;;;;;;;5046006;28;20390;-63
2024/01/28 03:07:25;;;;;;;21.15;13.85;;;;;;;;;;5065175;28;20056;-63
2024/01/28 03:09:52;;;;;;;21.77;13.95;;;;;;;;;;5046982;28;20434;-60
2024/01/28 03:12:17;;;;;;;19.60;13.63;;;;;;;;;;5048114;28;20072;-62
2024/01/28 03:14:45;;;;;;;21.00;13.45;;;;;;;;;;5048281;28;20509;-60
2024/01/28 03:17:13;;;;;;;17.23;12.50;;;;;;;;;;5052108;28;20045;-62
2024/01/28 03:19:39;;;;;;;20.73;13.30;;;;;;;;;;5045783;28;20139;-62
2024/01/28 03:22:05;;;;;;;20.73;13.38;;;;;;;;;;5050180;28;20382;-61
2024/01/28 03:24:31;;;;;;;20.35;12.90;;;;;;;;;;5051931;28;20118;-61
2024/01/28 03:26:57;;;;;;;19.98;12.68;;;;;;;;;;5052917;28;20057;-62
2024/01/28 03:29:23;;;;;;;18.50;12.82;;;;;;;;;;5050681;28;20063;-62
2024/01/28 03:31:49;;;;;;;18.60;12.32;;;;;;;;;;5052395;28;20049;-62
2024/01/28 03:34:16;;;;;;;18.90;12.48;;;;;;;;;;5047167;28;20062;-61
2024/01/28 03:36:42;;;;;;;20.92;12.38;;;;;;;;;;5050971;28;20077;-63
2024/01/28 03:39:08;;;;;;;21.27;13.45;;;;;;;;;;5043973;28;20049;-62
2024/01/28 03:41:34;;;;;;;20.88;13.40;;;;;;;;;;5034474;28;20056;-60
2024/01/28 03:44:00;;;;;;;18.42;13.00;;;;;;;;;;5049828;28;20187;-64
2024/01/28 03:46:26;;;;;;;21.60;13.18;;;;;;;;;;5051873;28;20108;-62
2024/01/28 03:48:52;;;;;;;21.17;13.30;;;;;;;;;;5047329;28;20045;-61
2024/01/28 03:51:19;;;;;;;20.35;13.70;;;;;;;;;;5049602;28;20048;-62
2024/01/28 03:53:45;;;;;;;20.67;13.27;;;;;;;;;;5047819;28;20063;-61
2024/01/28 03:56:11;;;;;;;19.73;12.52;;;;;;;;;;5052413;28;20064;-62
2024/01/28 03:58:37;;;;;;;20.85;13.13;;;;;;;;;;5054353;28;20044;-61
2024/01/28 04:01:03;;;;;;;17.48;12.13;;;;;;;;;;5051403;28;20546;-61
2024/01/28 04:03:29;;;;;;;18.58;12.50;;;;;;;;;;5054077;28;20060;-62
2024/01/28 04:05:58;;;;;;;17.70;11.82;;;;;;;;;;5047660;28;20045;-63
2024/01/28 04:08:24;;;;;;;22.80;11.52;;;;;;;;;;5052343;28;20693;-61
2024/01/28 04:10:50;;;;;;;20.15;11.23;;;;;;;;;;5044710;28;20040;-61
2024/01/28 04:13:17;;;;;;;21.17;11.13;;;;;;;;;;5046355;28;20095;-61
2024/01/28 04:15:44;;;;;;;18.77;10.93;;;;;;;;;;5046083;28;20247;-61
2024/01/28 04:18:10;;;;;;;16.48;11.25;;;;;;;;;;5045706;28;20389;-61
2024/01/28 04:20:36;;;;;;;16.25;11.88;;;;;;;;;;5034442;28;20053;-62
2024/01/28 04:23:02;;;;;;;20.30;11.93;;;;;;;;;;5050078;28;20045;-61
2024/01/28 04:25:28;;;;;;;16.42;10.63;;;;;;;;;;5047453;28;20140;-62
2024/01/28 04:27:54;;;;;;;15.77;10.50;;;;;;;;;;5039399;28;20059;-62
2024/01/28 04:30:20;;;;;;;19.58;11.30;;;;;;;;;;5049694;28;20053;-63
2024/01/28 04:32:47;;;;;;;19.52;10.75;;;;;;;;;;5044387;28;20151;-62
2024/01/28 04:35:13;;;;;;;14.88;10.52;;;;;;;;;;5041516;28;20052;-61
2024/01/28 04:37:40;;;;;;;18.20;10.98;;;;;;;;;;5047853;28;20132;-61
2024/01/28 04:40:07;;;;;;;15.02;11.20;;;;;;;;;;5048334;28;20045;-61
2024/01/28 04:42:33;;;;;;;18.73;11.63;;;;;;;;;;5046207;28;20061;-61
2024/01/28 04:44:59;;;;;;;16.75;11.60;;;;;;;;;;5046838;28;20045;-62
2024/01/28 04:47:25;;;;;;;20.45;11.65;;;;;;;;;;5049568;28;20044;-61
2024/01/28 04:49:51;;;;;;;18.75;11.98;;;;;;;;;;5048047;28;20556;-61
2024/01/28 04:52:18;;;;;;;17.40;12.02;;;;;;;;;;5046918;28;20045;-62
2024/01/28 04:54:44;;;;;;;17.00;12.15;;;;;;;;;;5045301;28;20049;-63
2024/01/28 04:57:10;;;;;;;19.92;12.48;;;;;;;;;;5050928;28;20466;-61
2024/01/28 04:59:36;;;;;;;20.90;12.32;;;;;;;;;;5049843;28;20045;-62
2024/01/28 05:02:05;;;;;;;17.23;11.75;;;;;;;;;;5047151;28;20044;-62
2024/01/28 05:04:31;;;;;;;17.40;12.20;;;;;;;;;;5041906;28;20111;-61
2024/01/28 05:06:59;;;;;;;21.67;11.95;;;;;;;;;;5046896;28;20044;-61
2024/01/28 05:09:24;;;;;;;19.35;12.68;;;;;;;;;;5041794;28;20045;-61
2024/01/28 05:11:50;;;;;;;20.10;12.90;;;;;;;;;;5048717;28;20045;-61
2024/01/28 05:14:16;;;;;;;20.80;12.45;;;;;;;;;;5046131;28;20772;-63
2024/01/28 05:16:47;;;;;;;22.95;13.60;;;;;;;;;;5044666;28;20041;-60
2024/01/28 05:19:13;;;;;;;20.30;13.20;;;;;;;;;;5044933;28;20048;-63
2024/01/28 05:21:39;;;;;;;21.40;13.40;;;;;;;;;;5047361;28;20530;-61
2024/01/28 05:24:06;;;;;;;21.25;13.35;;;;;;;;;;5046353;28;20061;-62
2024/01/28 05:26:36;;;;;;;18.50;12.93;;;;;;;;;;5044806;28;20055;-63
2024/01/28 05:29:05;;;;;;;20.55;12.82;;;;;;;;;;5047251;28;20037;-64
2024/01/28 05:31:32;;;;;;;20.02;12.63;;;;;;;;;;5048149;28;20055;-61
2024/01/28 05:34:00;;;;;;;18.40;12.32;;;;;;;;;;5048061;28;20056;-62
2024/01/28 05:36:27;;;;;;;17.42;12.60;;;;;;;;;;5046934;28;20059;-63
2024/01/28 05:38:57;;;;;;;21.63;12.68;;;;;;;;;;5046608;28;20390;-62
2024/01/28 05:41:24;;;;;;;19.15;12.20;;;;;;;;;;5049417;28;20412;-61
2024/01/28 05:43:49;;;;;;;21.98;13.23;;;;;;;;;;5046014;28;20500;-63
2024/01/28 05:46:16;;;;;;;20.20;12.80;;;;;;;;;;5049222;28;20045;-63
2024/01/28 05:48:42;;;;;;;18.83;12.63;;;;;;;;;;5044033;28;20045;-62
2024/01/28 05:51:08;;;;;;;18.00;11.95;;;;;;;;;;5041130;28;20049;-61
2024/01/28 05:53:35;;;;;;;19.38;12.85;;;;;;;;;;5039275;28;20055;-61
2024/01/28 05:56:04;;;;;;;19.55;12.23;;;;;;;;;;5065062;28;20483;-63
2024/01/28 05:58:31;;;;;;;17.92;12.05;;;;;;;;;;5048515;28;20496;-63
2024/01/28 06:01:02;;;;;;;16.10;11.73;;;;;;;;;;5046437;28;20136;-61
2024/01/28 06:03:28;;;;;;;19.45;12.30;;;;;;;;;;5049872;28;20053;-63
2024/01/28 06:05:56;;;;;;;16.45;11.80;;;;;;;;;;5051688;28;20093;-65
2024/01/28 06:08:23;;;;;;;18.05;11.30;;;;;;;;;;5047886;28;20060;-62
2024/01/28 06:10:49;;;;;;;19.20;12.15;;;;;;;;;;5048868;28;20056;-63
2024/01/28 06:13:14;;;;;;;18.80;11.98;;;;;;;;;;5042733;28;20049;-62
2024/01/28 06:15:42;;;;;;;19.35;11.95;;;;;;;;;;5048034;28;20522;-62
2024/01/28 06:18:09;;;;;;;20.00;12.57;;;;;;;;;;5046152;28;20041;-62
2024/01/28 06:20:35;;;;;;;19.88;11.80;;;;;;;;;;5048878;28;20041;-63
2024/01/28 06:23:02;;;;;;;18.23;11.75;;;;;;;;;;5025795;28;20055;-64
2024/01/28 06:25:37;;;;;;;17.50;11.75;;;;;;;;;;5047503;28;20344;-65
2024/01/28 06:28:05;;;;;;;18.67;11.18;;;;;;;;;;5050267;28;20268;-62
2024/01/28 06:30:35;;;;;;;16.58;11.75;;;;;;;;;;5047180;28;20041;-62
2024/01/28 06:33:04;;;;;;;18.42;12.20;;;;;;;;;;5049305;28;20056;-61
2024/01/28 06:35:30;;;;;;;18.20;12.05;;;;;;;;;;5043014;28;20533;-61
2024/01/28 06:37:56;;;;;;;17.05;10.93;;;;;;;;;;5049780;28;20056;-63
2024/01/28 06:40:23;;;;;;;19.90;11.30;;;;;;;;;;5036483;28;20053;-62
2024/01/28 06:42:49;;;;;;;16.73;11.20;;;;;;;;;;5051026;28;20103;-63
2024/01/28 06:45:15;;;;;;;19.38;12.18;;;;;;;;;;5044326;28;20067;-61
2024/01/28 06:47:41;;;;;;;17.70;11.40;;;;;;;;;;5052721;28;20130;-62
2024/01/28 06:50:15;;;;;;;21.20;11.68;;;;;;;;;;5051148;28;20048;-64
2024/01/28 06:52:44;;;;;;;16.83;11.18;;;;;;;;;;5051925;28;20056;-61
2024/01/28 06:55:12;;;;;;;17.52;11.32;;;;;;;;;;5052020;28;20064;-62
2024/01/28 06:57:38;;;;;;;17.05;11.30;;;;;;;;;;5054161;28;20045;-64
2024/01/28 07:00:10;;;;;;;16.48;12.13;;;;;;;;;;5052506;28;20512;-63
2024/01/28 07:02:37;;;;;;;25.77;12.20;;;;;;;;;;5052670;28;20076;-62
2024/01/28 07:05:04;;;;;;;17.15;12.18;;;;;;;;;;5054447;28;20118;-63
2024/01/28 07:07:30;;;;;;;21.55;12.07;;;;;;;;;;5034000;28;20077;-62
2024/01/28 07:09:56;;;;;;;19.08;11.98;;;;;;;;;;5055463;28;20372;-62
2024/01/28 07:12:23;;;;;;;19.88;12.25;;;;;;;;;;5067881;28;20056;-64
2024/01/28 07:14:52;;;;;;;18.23;13.20;;;;;;;;;;5050177;28;20052;-61
2024/01/28 07:17:18;;;;;;;22.85;13.32;;;;;;;;;;5054565;28;20079;-63
2024/01/28 07:19:58;;;;;;;21.88;12.77;;;;;;;;;;5065834;28;20045;-61
2024/01/28 07:22:25;;;;;;;22.45;13.95;;;;;;;;;;5050296;28;20049;-64
2024/01/28 07:24:51;;;;;;;20.30;13.63;;;;;;;;;;5048864;28;20041;-63
2024/01/28 07:27:19;;;;;;;23.75;13.57;;;;;;;;;;5057048;28;20167;-62
2024/01/28 07:29:46;;;;;;;23.17;13.65;;;;;;;;;;5054394;28;20037;-65
2024/01/28 07:32:16;;;;;;;24.08;13.50;;;;;;;;;;5068095;28;20049;-64
2024/01/28 07:34:42;;;;;;;25.40;14.52;;;;;;;;;;5050104;28;20071;-64
2024/01/28 07:37:10;;;;;;;20.38;13.68;;;;;;;;;;5053854;28;20551;-63
2024/01/28 07:39:37;;;;;;;21.55;14.25;;;;;;;;;;5048538;28;20045;-65
2024/01/28 07:42:07;;;;;;;31.08;14.80;;;;;;;;;;5053183;28;20053;-62
2024/01/28 07:45:15;;;;;;;25.75;14.25;;;;;;;;;;5050420;28;20057;-67
2024/01/28 07:48:57;;;;;;;20.33;13.18;;;;;;;;;;5042576;28;20417;-63
2024/01/28 07:52:40;;;;;;;20.95;13.20;;;;;;;;;;5053986;28;20298;-64
2024/01/28 07:56:20;;;;;;;23.98;13.70;;;;;;;;;;5049283;28;20055;-63
2024/01/28 07:59:42;;;;;;;17.48;12.75;;;;;;;;;;5046562;28;20053;-62
2024/01/28 08:02:48;;;;;;;24.30;12.50;;;;;;;;;;5061837;28;20533;-64
2024/01/28 08:06:29;;;;;;;25.60;13.07;;;;;;;;;;5045994;28;20120;-62
2024/01/28 08:09:33;;;;;;;19.35;12.05;;;;;;;;;;5042353;28;20048;-68
2024/01/28 08:12:00;;;;;;;22.55;13.68;;;;;;;;;;5049806;28;20141;-65
2024/01/28 08:14:27;;;;;;;26.52;13.43;;;;;;;;;;5048438;28;20127;-62
2024/01/28 08:16:55;;;;;;;19.45;13.27;;;;;;;;;;5044744;28;20057;-64
2024/01/28 08:19:21;;;;;;;24.52;12.77;;;;;;;;;;5051553;28;20049;-63
2024/01/28 08:21:48;;;;;;;22.00;14.80;;;;;;;;;;5052669;28;20047;-64
2024/01/28 08:24:16;;;;;;;26.33;14.07;;;;;;;;;;5046476;28;20560;-63
2024/01/28 08:27:23;;;;;;;23.20;13.60;;;;;;;;;;5049918;28;20063;-63
2024/01/28 08:31:04;;;;;;;21.58;13.90;;;;;;;;;;5042227;28;20123;-61
2024/01/28 08:34:46;;;;;;;28.35;15.65;;;;;;;;;;5046559;28;20148;-70
2024/01/28 08:38:24;;;;;;;32.08;15.48;;;;;;;;;;5046389;28;20035;-62
2024/01/28 08:42:05;;;;;;;19.38;14.10;;;;;;;;;;5040066;28;20106;-63
2024/01/28 08:45:45;;;;;;;30.88;19.95;;;;;;;;;;5035732;28;20103;-64
2024/01/28 08:49:28;;;;;;;52.17;28.70;;;;;;;;;;5030494;28;20087;-60
2024/01/28 08:53:11;;;;;;;58.85;31.23;;;;;;;;;;5025238;28;20049;-62
2024/01/28 08:56:51;;;;;;;68.85;33.13;;;;;;;;;;5035928;28;20048;-62
2024/01/28 09:00:31;;;;;;;63.60;32.65;;;;;;;;;;5029306;28;20057;-63
2024/01/28 09:04:11;;;;;;;59.50;33.67;;;;;;;;;;5023917;28;20114;-62
2024/01/28 09:07:55;;;;;;;59.00;31.23;;;;;;;;;;5024929;28;20072;-62
2024/01/28 09:11:35;;;;;;;62.30;31.95;;;;;;;;;;5031297;28;20573;-62
2024/01/28 09:15:18;;;;;;;59.83;30.60;;;;;;;;;;5030549;28;20045;-66
2024/01/28 09:19:03;;;;;;;59.13;31.95;;;;;;;;;;5030872;28;20132;-63
2024/01/28 09:22:39;;;;;;;57.97;31.95;;;;;;;;;;5030054;28;20140;-62
2024/01/28 09:26:19;;;;;;;56.42;32.45;;;;;;;;;;5027262;28;20333;-62
2024/01/28 09:30:01;;;;;;;57.40;31.70;;;;;;;;;;5049566;28;20045;-66
2024/01/28 09:32:31;;;;;;;49.92;30.38;;;;;;;;;;5045024;28;20424;-68
2024/01/28 09:34:59;;;;;;;50.38;30.73;;;;;;;;;;5048163;28;20431;-64
2024/01/28 09:37:28;;;;;;;53.78;31.58;;;;;;;;;;5044188;28;20048;-68
2024/01/28 09:39:55;;;;;;;51.67;31.90;;;;;;;;;;5042986;28;20053;-71
2024/01/28 09:42:26;;;;;;;56.05;31.75;;;;;;;;;;5046892;28;20110;-65
2024/01/28 09:44:52;;;;;;;47.95;31.50;;;;;;;;;;5034923;28;21054;-65
2024/01/28 09:47:19;;;;;;;45.47;30.48;;;;;;;;;;5034637;28;20542;-68
2024/01/28 09:49:52;;;;;;;51.33;32.22;;;;;;;;;;5037462;28;20045;-64
2024/01/28 09:52:22;;;;;;;46.22;30.92;;;;;;;;;;5044159;28;20056;-71
2024/01/28 09:54:49;;;;;;;42.45;31.63;;;;;;;;;;5045716;28;20049;-66
2024/01/28 09:57:16;;;;;;;49.78;31.40;;;;;;;;;;5044335;28;20049;-65
2024/01/28 09:59:45;;;;;;;46.35;31.27;;;;;;;;;;5043814;28;20556;-71
2024/01/28 10:02:14;;;;;;;44.92;29.00;;;;;;;;;;5045942;28;20527;-68
2024/01/28 10:04:42;;;;;;;42.03;28.63;;;;;;;;;;5042531;28;20052;-68
2024/01/28 10:07:11;;;;;;;44.65;29.15;;;;;;;;;;5062878;28;20509;-64
2024/01/28 10:09:41;;;;;;;43.63;27.60;;;;;;;;;;5046624;28;20060;-64
2024/01/28 10:12:09;;;;;;;43.83;27.35;;;;;;;;;;5049254;28;20053;-66
2024/01/28 10:14:38;;;;;;;44.15;28.90;;;;;;;;;;5046902;28;20552;-66
2024/01/28 10:17:14;;;;;;;41.85;27.95;;;;;;;;;;5040791;28;20123;-66
2024/01/28 10:19:41;;;;;;;44.85;28.17;;;;;;;;;;5044361;28;20136;-64
2024/01/28 10:22:13;;;;;;;52.37;28.27;;;;;;;;;;5046230;28;20051;-66
2024/01/28 10:24:42;;;;;;;42.70;28.10;;;;;;;;;;5057216;28;20033;-66
2024/01/28 10:27:08;;;;;;;40.13;27.23;;;;;;;;;;5047057;28;20060;-65
2024/01/28 10:29:36;;;;;;;43.35;28.58;;;;;;;;;;5048039;28;20071;-68
2024/01/28 10:32:03;;;;;;;41.85;27.77;;;;;;;;;;5055150;28;20057;-64
2024/01/28 10:34:31;;;;;;;44.05;28.77;;;;;;;;;;5041484;28;20053;-67
2024/01/28 10:36:59;;;;;;;44.22;28.27;;;;;;;;;;5043663;28;20049;-67
2024/01/28 10:39:34;;;;;;;43.45;28.73;;;;;;;;;;5027474;28;20060;-72
2024/01/28 10:42:42;;;;;;;42.05;29.42;;;;;;;;;;5037237;28;20045;-67
2024/01/28 10:45:31;;;;;;;41.05;27.55;;;;;;;;;;5038896;28;20064;-65
2024/01/28 10:48:11;;;;;;;43.47;27.90;;;;;;;;;;5042921;28;20120;-70
2024/01/28 10:50:39;;;;;;;43.63;29.23;;;;;;;;;;5038323;28;20404;-67
2024/01/28 10:53:07;;;;;;;39.97;28.20;;;;;;;;;;5044623;28;20515;-66
2024/01/28 10:55:34;;;;;;;43.58;30.42;;;;;;;;;;5037882;28;20096;-67
2024/01/28 10:58:04;;;;;;;42.30;27.20;;;;;;;;;;5047793;28;20064;-69
2024/01/28 11:00:32;;;;;;;44.38;29.15;;;;;;;;;;5042807;28;20055;-67
2024/01/28 11:03:01;;;;;;;46.78;29.48;;;;;;;;;;5033163;28;20523;-67
2024/01/28 11:05:28;;;;;;;43.83;30.35;;;;;;;;;;5035644;28;20055;-68
2024/01/28 11:07:59;;;;;;;40.88;29.20;;;;;;;;;;5048300;28;20049;-67
2024/01/28 11:10:31;;;;;;;40.53;28.05;;;;;;;;;;5036657;28;20075;-67
2024/01/28 11:13:01;;;;;;;39.20;27.70;;;;;;;;;;5039385;28;20049;-67
2024/01/28 11:15:30;;;;;;;41.90;27.95;;;;;;;;;;5038958;28;20881;-70
2024/01/28 11:18:01;;;;;;;45.75;25.90;;;;;;;;;;5040735;28;20487;-69
2024/01/28 11:20:34;;;;;;;38.70;24.25;;;;;;;;;;5035657;28;20045;-70
2024/01/28 11:23:01;;;;;;;47.60;27.25;;;;;;;;;;5040932;28;20592;-65
2024/01/28 11:25:30;;;;;;;45.58;26.90;;;;;;;;;;5046582;28;20055;-67
2024/01/28 11:28:00;;;;;;;47.63;27.08;;;;;;;;;;5049070;28;20051;-67
2024/01/28 11:30:27;;;;;;;46.95;27.50;;;;;;;;;;5042832;28;20041;-68
2024/01/28 11:33:06;;;;;;;44.13;26.48;;;;;;;;;;5047927;28;20136;-66
2024/01/28 11:35:33;;;;;;;42.72;26.40;;;;;;;;;;5043897;28;20045;-67
2024/01/28 11:38:05;;;;;;;39.50;24.95;;;;;;;;;;5044286;28;20057;-68
2024/01/28 11:40:38;;;;;;;43.72;27.48;;;;;;;;;;5047974;28;20040;-67
2024/01/28 11:43:06;;;;;;;44.17;25.70;;;;;;;;;;5042079;28;20059;-68
2024/01/28 11:45:36;;;;;;;43.70;25.75;;;;;;;;;;5047579;28;20124;-68
2024/01/28 11:48:12;;;;;;;40.63;25.35;;;;;;;;;;5051232;28;20069;-67
2024/01/28 11:50:39;;;;;;;41.17;26.42;;;;;;;;;;5046957;28;20052;-67
2024/01/28 11:53:06;;;;;;;45.03;26.83;;;;;;;;;;5047548;28;20479;-67
2024/01/28 11:55:37;;;;;;;42.75;27.17;;;;;;;;;;5041046;28;20096;-67
2024/01/28 11:58:05;;;;;;;43.28;27.25;;;;;;;;;;5046759;28;20286;-65
2024/01/28 12:00:32;;;;;;;42.35;26.55;;;;;;;;;;5045303;28;20609;-67
2024/01/28 12:02:59;;;;;;;41.33;26.02;;;;;;;;;;5048409;28;20386;-67
2024/01/28 12:05:26;;;;;;;37.90;25.35;;;;;;;;;;5045675;28;20049;-68
2024/01/28 12:07:54;;;;;;;40.90;26.70;;;;;;;;;;5041671;28;20280;-69
2024/01/28 12:10:31;;;;;;;40.50;26.48;;;;;;;;;;5044159;28;20489;-67
2024/01/28 12:13:00;;;;;;;38.67;25.27;;;;;;;;;;5046903;28;20063;-68
2024/01/28 12:15:28;;;;;;;38.83;23.50;;;;;;;;;;5042907;28;20053;-66
2024/01/28 12:17:53;;;;;;;37.75;25.20;;;;;;;;;;5044387;28;20037;-67
2024/01/28 12:20:23;;;;;;;37.78;24.35;;;;;;;;;;5040054;28;20263;-68
2024/01/28 12:22:49;;;;;;;37.10;24.48;;;;;;;;;;5043140;28;20053;-65
2024/01/28 12:25:21;;;;;;;39.20;24.33;;;;;;;;;;5043327;28;20121;-70
2024/01/28 12:27:50;;;;;;;39.53;23.05;;;;;;;;;;5038695;28;20053;-72
2024/01/28 12:30:31;;;;;;;38.53;23.30;;;;;;;;;;5028207;28;20045;-67
2024/01/28 12:33:02;;;;;;;37.28;22.02;;;;;;;;;;5032750;28;20577;-69
2024/01/28 12:35:28;;;;;;;36.08;23.17;;;;;;;;;;5032510;28;20053;-69
2024/01/28 12:37:55;;;;;;;37.67;24.55;;;;;;;;;;5023048;28;20092;-67
2024/01/28 12:40:22;;;;;;;38.58;23.23;;;;;;;;;;5013341;28;20596;-70
2024/01/28 12:42:56;;;;;;;31.52;22.48;;;;;;;;;;5035541;28;20051;-68
2024/01/28 12:45:25;;;;;;;31.25;22.13;;;;;;;;;;5021480;28;20068;-70
2024/01/28 12:47:52;;;;;;;32.17;22.25;;;;;;;;;;5028711;28;20065;-68
2024/01/28 12:50:20;;;;;;;30.27;21.95;;;;;;;;;;5030006;28;20117;-69
2024/01/28 12:52:46;;;;;;;31.58;21.73;;;;;;;;;;5026567;28;20060;-69
2024/01/28 12:55:14;;;;;;;37.90;23.63;;;;;;;;;;5031752;28;20060;-74
2024/01/28 12:57:42;;;;;;;36.90;23.45;;;;;;;;;;5032228;28;20489;-68
2024/01/28 13:00:11;;;;;;;33.70;22.00;;;;;;;;;;5032562;28;20048;-67
2024/01/28 13:02:39;;;;;;;31.92;20.15;;;;;;;;;;5048245;28;20044;-67
2024/01/28 13:05:08;;;;;;;38.78;22.38;;;;;;;;;;5033651;28;20489;-67
2024/01/28 13:07:37;;;;;;;34.10;21.35;;;;;;;;;;5030899;28;20061;-65
2024/01/28 13:10:03;;;;;;;32.83;20.90;;;;;;;;;;5027934;28;20041;-70
2024/01/28 13:12:33;;;;;;;29.60;20.15;;;;;;;;;;5052541;28;20133;-69
2024/01/28 13:14:59;;;;;;;33.95;21.08;;;;;;;;;;5032266;28;20068;-67
2024/01/28 13:17:28;;;;;;;27.55;18.70;;;;;;;;;;5040817;28;20636;-70
2024/01/28 13:19:55;;;;;;;30.83;18.45;;;;;;;;;;5045652;28;20129;-70
2024/01/28 13:22:24;;;;;;;29.00;17.67;;;;;;;;;;5050575;28;20127;-65
2024/01/28 13:24:53;;;;;;;33.17;17.50;;;;;;;;;;5046057;28;20135;-66
2024/01/28 13:27:40;;;;;;;26.80;17.65;;;;;;;;;;5035214;28;20064;-65
2024/01/28 13:30:07;;;;;;;27.63;17.85;;;;;;;;;;5041447;28;20055;-68
2024/01/28 13:32:36;;;;;;;24.55;17.00;;;;;;;;;;5035468;28;20191;-67
2024/01/28 13:35:06;;;;;;;27.17;16.70;;;;;;;;;;5033461;28;20056;-66
2024/01/28 13:37:33;;;;;;;22.80;16.67;;;;;;;;;;5027280;28;20529;-67
2024/01/28 13:39:59;;;;;;;23.13;16.25;;;;;;;;;;5040677;28;20045;-67
2024/01/28 13:42:29;;;;;;;23.15;15.32;;;;;;;;;;5031779;28;20357;-67
2024/01/28 13:44:55;;;;;;;25.10;15.85;;;;;;;;;;5047176;28;20063;-69
2024/01/28 13:47:22;;;;;;;21.38;16.20;;;;;;;;;;5049042;28;20063;-66
2024/01/28 13:49:49;;;;;;;20.10;16.15;;;;;;;;;;5043459;28;20131;-67
2024/01/28 13:52:16;;;;;;;22.98;15.80;;;;;;;;;;5045462;28;20048;-68
2024/01/28 13:54:42;;;;;;;24.83;17.02;;;;;;;;;;5029319;28;20539;-64
2024/01/28 13:57:10;;;;;;;24.10;17.75;;;;;;;;;;5040945;28;20041;-66
2024/01/28 13:59:36;;;;;;;22.85;16.67;;;;;;;;;;5034427;28;20064;-65
2024/01/28 14:02:05;;;;;;;26.95;18.38;;;;;;;;;;5027257;28;20407;-67
2024/01/28 14:04:34;;;;;;;24.33;18.15;;;;;;;;;;5032040;28;20041;-68
2024/01/28 14:07:00;;;;;;;31.80;18.88;;;;;;;;;;5028268;28;20057;-69
2024/01/28 14:09:26;;;;;;;28.27;18.25;;;;;;;;;;5027302;28;20170;-66
2024/01/28 14:11:54;;;;;;;26.55;17.67;;;;;;;;;;5029574;28;20090;-67
2024/01/28 14:14:20;;;;;;;24.83;17.52;;;;;;;;;;5031862;28;20524;-69
2024/01/28 14:16:46;;;;;;;22.85;17.80;;;;;;;;;;5023865;28;20053;-66
2024/01/28 14:19:14;;;;;;;26.15;16.63;;;;;;;;;;5036207;28;20052;-68
2024/01/28 14:21:40;;;;;;;23.77;16.42;;;;;;;;;;5042943;28;20053;-66
2024/01/28 14:24:09;;;;;;;20.23;14.95;;;;;;;;;;5045297;28;20807;-67
2024/01/28 14:26:38;;;;;;;22.27;14.48;;;;;;;;;;5041302;28;20052;-66
2024/01/28 14:29:04;;;;;;;22.42;13.98;;;;;;;;;;5040481;28;20057;-67
2024/01/28 14:31:30;;;;;;;21.88;14.70;;;;;;;;;;5043825;28;20052;-66
2024/01/28 14:34:05;;;;;;;17.10;13.40;;;;;;;;;;5046251;28;20124;-67
2024/01/28 14:36:31;;;;;;;17.90;11.80;;;;;;;;;;5027569;28;20044;-67
2024/01/28 14:38:58;;;;;;;19.55;13.35;;;;;;;;;;5031566;28;20507;-70
2024/01/28 14:41:24;;;;;;;20.67;13.90;;;;;;;;;;5024707;28;20049;-66
2024/01/28 14:43:50;;;;;;;22.23;14.23;;;;;;;;;;5005004;28;20818;-69
2024/01/28 14:46:17;;;;;;;21.63;14.50;;;;;;;;;;5030801;28;20188;-66
2024/01/28 14:48:43;;;;;;;21.90;16.10;;;;;;;;;;5021732;28;20135;-69